Time;durP1;ratioP1;P1;durP2;ratioP2;P2;SDS_P1;SDS_P2;PMS_P1;PMS_P2;Temp;Humidity;BMP_temperature;BMP_pressure;BME280_temperature;BME280_humidity;BME280_pressure;Samples;Min_cycle;Max_cycle;Signal;HPM_P1;HPM_P2
2023/01/05 00:01:36;;;;;;;2.08;1.25;;;;;;;-0.54;85.88;98660.66;5071379;28;20055;-47
2023/01/05 00:04:38;;;;;;;2.47;1.30;;;;;;;-0.56;85.38;98654.72;5073886;28;20036;-44
2023/01/05 00:07:23;;;;;;;2.45;1.30;;;;;;;-0.61;84.96;98657.31;5076975;28;20038;-45
2023/01/05 00:22:29;;;;;;;2.42;1.52;;;;;;;-0.65;84.54;98655.63;5080741;28;20044;-45
2023/01/05 00:24:50;;;;;;;3.63;1.67;;;;;;;-0.89;79.26;98625.19;5084367;28;20061;-44
2023/01/05 00:27:16;;;;;;;3.85;1.83;;;;;;;-0.62;78.86;98654.75;5077944;28;20044;-46
2023/01/05 00:29:42;;;;;;;3.92;2.22;;;;;;;-0.55;78.68;98651.31;5076537;28;20047;-48
2023/01/05 00:32:45;;;;;;;5.53;2.22;;;;;;;-0.51;78.11;98656.38;5081030;28;20036;-45
2023/01/05 00:35:13;;;;;;;5.55;1.95;;;;;;;-0.49;77.63;98644.47;5081822;28;20044;-46
2023/01/05 00:37:57;;;;;;;5.10;2.10;;;;;;;-0.45;77.48;98647.84;5082062;28;20047;-47
2023/01/05 00:40:26;;;;;;;6.47;2.28;;;;;;;-0.65;76.63;98606.28;5086017;28;20039;-47
2023/01/05 00:42:52;;;;;;;3.95;2.08;;;;;;;-0.45;76.47;98640.19;5087742;28;20063;-46
2023/01/05 00:45:55;;;;;;;3.75;2.15;;;;;;;-0.44;76.17;98636.78;5084792;28;20536;-45
2023/01/05 00:48:21;;;;;;;4.25;2.20;;;;;;;-0.47;75.83;98637.63;5088025;28;20042;-44
2023/01/05 00:50:48;;;;;;;4.75;2.22;;;;;;;-0.44;75.87;98632.53;5073041;28;20048;-44
2023/01/05 00:53:14;;;;;;;3.72;1.80;;;;;;;-0.44;76.13;98634.22;5070594;28;20467;-45
2023/01/05 00:55:42;;;;;;;6.60;2.53;;;;;;;-0.44;75.92;98637.63;5087716;28;20107;-44
2023/01/05 00:58:08;;;;;;;4.93;2.10;;;;;;;-0.43;75.73;98641.88;5069442;28;20122;-49
2023/01/05 01:00:34;;;;;;;3.40;2.35;;;;;;;-0.45;75.95;98624.84;5087370;28;20485;-44
2023/01/05 01:02:59;;;;;;;4.00;2.20;;;;;;;-0.46;75.75;98630.81;5087332;28;20542;-45
2023/01/05 01:06:02;;;;;;;4.70;2.47;;;;;;;-0.42;76.08;98629.97;5090832;28;20051;-46
2023/01/05 01:08:28;;;;;;;5.40;2.72;;;;;;;-0.40;76.11;98627.38;5067264;28;20131;-44
2023/01/05 01:11:15;;;;;;;4.95;2.35;;;;;;;-0.39;75.84;98632.47;5067282;28;20066;-48
2023/01/05 01:14:02;;;;;;;5.45;2.25;;;;;;;-0.40;75.70;98627.38;5088494;28;20047;-44
2023/01/05 01:17:04;;;;;;;6.35;2.50;;;;;;;-0.38;76.13;98615.47;5107986;28;20589;-46
2023/01/05 01:20:08;;;;;;;4.03;2.33;;;;;;;-0.40;75.46;98625.69;5097129;28;20036;-44
2023/01/05 01:22:34;;;;;;;5.65;2.75;;;;;;;-0.40;75.40;98622.28;5106286;28;20047;-44
2023/01/05 01:25:00;;;;;;;3.28;2.05;;;;;;;-0.39;75.66;98617.16;5105520;28;20047;-47
2023/01/05 01:28:03;;;;;;;3.88;2.20;;;;;;;-0.40;75.19;98612.06;5105907;28;20404;-44
2023/01/05 01:30:48;;;;;;;6.95;2.15;;;;;;;-0.41;75.06;98613.75;5103836;28;20096;-46
2023/01/05 01:33:32;;;;;;;4.47;2.20;;;;;;;-0.42;74.96;98615.47;5085459;28;20043;-45
2023/01/05 01:36:17;;;;;;;4.05;2.20;;;;;;;-0.39;74.99;98619.72;5087765;28;20459;-45
2023/01/05 01:39:01;;;;;;;5.00;2.20;;;;;;;-0.60;75.08;98589.25;5070665;28;20041;-46
2023/01/05 01:41:32;;;;;;;4.47;2.50;;;;;;;-0.42;75.08;98624.84;5080325;28;20139;-45
2023/01/05 01:44:49;;;;;;;3.47;1.67;;;;;;;-0.47;74.69;98626.56;5090926;28;20047;-47
2023/01/05 01:47:42;;;;;;;2.58;1.63;;;;;;;-0.52;74.62;98623.19;5091199;28;20032;-44
2023/01/05 01:50:18;;;;;;;4.20;1.70;;;;;;;-0.57;73.96;98623.25;5091075;28;20583;-45
2023/01/05 01:52:45;;;;;;;3.47;1.88;;;;;;;-0.57;73.82;98625.78;5110326;28;20048;-45
2023/01/05 01:55:48;;;;;;;3.70;2.00;;;;;;;-0.58;73.76;98620.72;5102975;28;20040;-44
2023/01/05 01:58:33;;;;;;;2.92;1.65;;;;;;;-0.57;73.95;98617.28;5076411;28;20032;-46
2023/01/05 02:01:55;;;;;;;2.97;1.58;;;;;;;-0.58;73.72;98618.16;5097784;28;20055;-48
2023/01/05 02:04:58;;;;;;;3.00;1.45;;;;;;;-0.59;74.03;98611.38;5093793;28;20058;-45
2023/01/05 02:07:25;;;;;;;5.80;2.00;;;;;;;-0.67;73.71;98616.50;5085248;28;20085;-43
2023/01/05 02:10:09;;;;;;;2.95;1.75;;;;;;;-0.83;73.57;98584.28;5091646;28;20051;-46
2023/01/05 02:12:57;;;;;;;2.67;1.55;;;;;;;-0.77;73.37;98606.38;5073639;28;20032;-46
2023/01/05 02:15:48;;;;;;;5.60;1.60;;;;;;;-0.74;73.46;98624.22;5073714;28;20067;-44
2023/01/05 02:18:33;;;;;;;3.25;1.75;;;;;;;-0.70;72.97;98608.88;5073317;28;20035;-48
2023/01/05 02:21:43;;;;;;;3.42;1.60;;;;;;;-0.76;72.75;98608.91;5082263;28;20044;-47
2023/01/05 02:24:48;;;;;;;4.13;1.73;;;;;;;-0.76;72.95;98598.72;5076758;28;20066;-44
2023/01/05 02:27:51;;;;;;;2.35;1.50;;;;;;;-0.69;72.87;98600.38;5110642;28;20059;-44
2023/01/05 02:30:19;;;;;;;3.30;1.75;;;;;;;-0.67;72.51;98608.84;5110275;28;20032;-45
2023/01/05 02:33:11;;;;;;;2.97;1.90;;;;;;;-0.69;72.07;98607.19;5090667;28;20032;-46
2023/01/05 02:36:05;;;;;;;3.00;1.73;;;;;;;-0.70;71.88;98600.38;5093184;28;20496;-45
2023/01/05 02:39:26;;;;;;;2.95;1.63;;;;;;;-0.71;71.79;98608.88;5090032;28;20063;-47
2023/01/05 02:42:14;;;;;;;3.72;1.88;;;;;;;-0.76;71.46;98597.88;5109858;28;20039;-45
2023/01/05 02:44:46;;;;;;;2.90;1.60;;;;;;;-0.87;71.55;98593.69;5065185;28;20048;-46
2023/01/05 02:47:24;;;;;;;6.10;1.80;;;;;;;-0.88;71.61;98596.22;5072765;28;20400;-46
2023/01/05 02:50:16;;;;;;;3.00;1.75;;;;;;;-0.90;71.58;98588.63;5073460;28;20773;-46
2023/01/05 02:52:45;;;;;;;3.95;1.55;;;;;;;-0.92;71.33;98592.88;5110130;28;20043;-45
2023/01/05 02:56:13;;;;;;;2.72;1.83;;;;;;;-0.91;71.64;98593.72;5110306;28;20054;-44
2023/01/05 02:59:09;;;;;;;4.25;1.80;;;;;;;-0.97;71.46;98597.16;5089160;28;20047;-46
2023/01/05 03:02:31;;;;;;;5.35;1.67;;;;;;;-1.00;70.91;98586.13;5111119;28;20094;-43
2023/01/05 03:05:37;;;;;;;2.75;1.65;;;;;;;-1.02;70.75;98588.69;5107719;28;20047;-47
2023/01/05 03:08:42;;;;;;;2.53;1.55;;;;;;;-1.01;70.96;98580.19;5097519;27;20040;-45
2023/01/05 03:14:41;;;;;;;3.10;1.80;;;;;;;-1.02;71.01;98573.38;5090585;28;20035;-45
2023/01/05 03:17:32;;;;;;;3.25;1.60;;;;;;;-1.05;70.72;98580.22;5069304;28;20708;-45
2023/01/05 03:20:17;;;;;;;3.25;1.70;;;;;;;-1.07;70.93;98575.09;5052451;28;20044;-45
2023/01/05 03:35:57;;;;;;;4.28;1.85;;;;;;;-1.02;71.21;98560.63;5074624;28;20399;-48
2023/01/05 03:38:41;;;;;;;2.50;1.60;;;;;;;-1.04;70.64;98553.81;5092700;28;20040;-43
2023/01/05 03:41:09;;;;;;;3.15;1.70;;;;;;;-1.09;70.64;98558.94;5071875;28;20050;-46
2023/01/05 03:43:56;;;;;;;2.85;1.83;;;;;;;-1.13;70.95;98552.19;5072216;28;20400;-44
2023/01/05 03:46:42;;;;;;;3.42;1.70;;;;;;;-1.12;71.02;98558.13;5100323;28;20074;-45
2023/01/05 03:49:09;;;;;;;6.22;2.22;;;;;;;-1.36;71.01;98516.63;5091922;28;20040;-45
2023/01/05 03:51:35;;;;;;;3.33;1.80;;;;;;;-1.13;70.84;98554.75;5076868;28;20054;-46
2023/01/05 03:54:19;;;;;;;3.55;1.70;;;;;;;-1.30;70.77;98526.78;5100572;28;20431;-47
2023/01/05 03:57:05;;;;;;;3.08;1.63;;;;;;;-1.14;70.66;98545.38;5086676;28;20568;-46
2023/01/05 04:00:08;;;;;;;3.78;1.75;;;;;;;-1.17;70.48;98542.00;5094510;28;20122;-48
2023/01/05 04:02:44;;;;;;;2.55;1.58;;;;;;;-1.20;70.17;98553.06;5109767;28;20435;-47
2023/01/05 04:05:32;;;;;;;3.35;1.58;;;;;;;-1.23;70.30;98542.06;5090224;28;20081;-45
2023/01/05 04:08:36;;;;;;;3.08;1.50;;;;;;;-1.24;70.57;98540.34;5081634;28;20040;-45
2023/01/05 04:11:22;;;;;;;2.67;1.50;;;;;;;-1.29;70.43;98540.38;5088174;28;20040;-45
2023/01/05 04:13:56;;;;;;;3.83;1.70;;;;;;;-1.30;70.06;98534.44;5072105;28;20044;-46
2023/01/05 04:16:41;;;;;;;3.08;1.75;;;;;;;-1.31;70.07;98537.00;5104021;28;20044;-45
2023/01/05 04:19:18;;;;;;;3.55;1.77;;;;;;;-1.39;70.51;98536.19;5070973;28;20040;-47
2023/01/05 04:21:44;;;;;;;3.47;1.88;;;;;;;-1.45;70.61;98538.75;5085949;28;20466;-44
2023/01/05 04:24:47;;;;;;;3.95;1.95;;;;;;;-1.46;71.00;98539.59;5073693;28;20046;-44
2023/01/05 04:27:14;;;;;;;4.07;1.98;;;;;;;-1.46;70.81;98530.25;5104985;28;20068;-44
2023/01/05 04:29:58;;;;;;;3.75;1.83;;;;;;;-1.47;71.29;98525.19;5108382;28;20151;-46
2023/01/05 04:32:42;;;;;;;3.80;1.80;;;;;;;-1.47;71.12;98533.69;5091240;28;20046;-46
2023/01/05 04:35:45;;;;;;;3.83;2.25;;;;;;;-1.45;71.29;98533.66;5102496;28;20067;-45
2023/01/05 04:38:13;;;;;;;3.28;2.10;;;;;;;-1.61;71.26;98506.56;5072141;28;20037;-44
2023/01/05 04:40:39;;;;;;;5.45;2.33;;;;;;;-1.45;71.52;98528.56;5067284;28;20044;-44
2023/01/05 04:43:24;;;;;;;4.32;2.42;;;;;;;-1.45;71.77;98531.97;5067632;28;20048;-45
2023/01/05 04:46:08;;;;;;;4.07;2.10;;;;;;;-1.42;71.41;98526.03;5077853;28;20046;-44
2023/01/05 04:49:31;;;;;;;5.28;2.20;;;;;;;-1.42;71.80;98516.69;5105510;28;20043;-45
2023/01/05 04:52:36;;;;;;;3.20;1.88;;;;;;;-1.41;71.63;98514.94;5100128;28;20050;-46
2023/01/05 04:55:21;;;;;;;4.40;2.10;;;;;;;-1.43;71.48;98522.63;5090872;28;20035;-45
2023/01/05 04:58:06;;;;;;;7.72;2.10;;;;;;;-1.43;71.45;98521.78;5050620;28;20136;-47
2023/01/05 05:00:52;;;;;;;3.72;2.10;;;;;;;-1.42;71.75;98520.94;5080263;28;20087;-45
2023/01/05 05:03:20;;;;;;;3.90;2.30;;;;;;;-1.42;71.64;98513.28;5070363;28;20559;-46
2023/01/05 05:06:23;;;;;;;4.97;2.25;;;;;;;-1.53;71.71;98494.66;5089428;28;20039;-48
2023/01/05 05:09:07;;;;;;;5.68;2.47;;;;;;;-1.38;71.85;98510.69;5068675;28;20058;-47
2023/01/05 05:12:14;;;;;;;2.35;1.67;;;;;;;-1.35;71.76;98505.56;5066823;28;20127;-46
2023/01/05 05:14:40;;;;;;;4.47;2.10;;;;;;;-1.38;71.45;98515.78;5050137;28;20531;-45
2023/01/05 05:17:25;;;;;;;4.18;1.98;;;;;;;-1.35;71.79;98508.13;5095246;28;20095;-47
2023/01/05 05:20:47;;;;;;;4.28;2.22;;;;;;;-1.35;71.55;98510.66;5088159;28;20036;-45
2023/01/05 05:23:32;;;;;;;3.08;1.83;;;;;;;-1.37;71.52;98509.84;5076149;28;20047;-46
2023/01/05 05:26:16;;;;;;;7.45;2.42;;;;;;;-1.38;71.53;98504.75;5088559;28;20487;-46
2023/01/05 05:28:44;;;;;;;4.45;1.80;;;;;;;-1.57;71.62;98477.69;5088252;28;20595;-44
2023/01/05 05:31:47;;;;;;;5.28;2.80;;;;;;;-1.36;71.58;98514.06;5072640;28;20055;-44
2023/01/05 05:34:32;;;;;;;8.68;3.00;;;;;;;-1.35;71.45;98508.13;5070383;28;20036;-48
2023/01/05 05:37:16;;;;;;;9.65;3.03;;;;;;;-1.36;71.46;98516.63;5092234;28;20056;-45
2023/01/05 05:39:42;;;;;;;11.68;3.10;;;;;;;-1.34;71.67;98506.41;5070295;28;20067;-49
2023/01/05 05:42:56;;;;;;;7.15;2.45;;;;;;;-1.33;71.69;98506.41;5101313;28;20093;-48
2023/01/05 05:45:41;;;;;;;20.20;3.83;;;;;;;-1.36;71.55;98493.69;5087067;28;20074;-45
2023/01/05 05:48:44;;;;;;;7.88;3.20;;;;;;;-1.29;71.86;98503.00;5067017;28;20756;-45
2023/01/05 05:51:47;;;;;;;11.90;2.90;;;;;;;-1.29;71.60;98497.88;5074216;28;20035;-48
2023/01/05 05:54:50;;;;;;;8.05;2.83;;;;;;;-1.27;71.67;98504.69;5090250;28;20138;-47
2023/01/05 05:57:35;;;;;;;5.50;2.20;;;;;;;-1.66;71.32;98444.59;5092714;28;20028;-44
2023/01/05 06:00:01;;;;;;;4.93;1.50;;;;;;;-1.36;71.31;98505.59;5053798;28;20178;-44
2023/01/05 06:02:51;;;;;;;7.67;2.07;;;;;;;-1.38;71.21;98507.31;5087002;28;20583;-45
2023/01/05 06:05:39;;;;;;;4.07;1.90;;;;;;;-1.38;71.27;98508.16;5067573;28;20097;-44
2023/01/05 06:08:05;;;;;;;3.58;1.85;;;;;;;-1.52;70.89;98473.41;5087546;28;20123;-45
2023/01/05 06:10:49;;;;;;;7.10;2.20;;;;;;;-1.53;71.01;98461.53;5086603;28;20036;-47
2023/01/05 06:13:34;;;;;;;5.40;2.33;;;;;;;-1.33;71.04;98490.28;5086385;28;20032;-46
2023/01/05 06:16:19;;;;;;;8.23;4.00;;;;;;;-1.32;70.62;98494.53;5088453;28;20039;-46
2023/01/05 06:19:03;;;;;;;8.07;3.60;;;;;;;-1.33;70.33;98491.13;5086938;28;20042;-47
2023/01/05 06:22:06;;;;;;;7.07;2.72;;;;;;;-1.32;70.61;98504.72;5088994;28;20055;-46
2023/01/05 06:24:35;;;;;;;7.53;2.95;;;;;;;-1.30;70.26;98487.69;5089438;28;20058;-44
2023/01/05 06:27:57;;;;;;;5.78;3.17;;;;;;;-1.25;69.98;98491.06;5094497;28;20127;-48
2023/01/05 06:30:23;;;;;;;8.57;4.78;;;;;;;-1.24;70.10;98485.09;5091890;28;20067;-47
2023/01/05 06:33:08;;;;;;;10.15;3.90;;;;;;;-1.25;70.05;98482.56;5090157;28;20091;-48
2023/01/05 06:35:52;;;;;;;6.63;3.28;;;;;;;-1.23;69.99;98480.84;5090361;28;20107;-47
2023/01/05 06:38:56;;;;;;;10.57;3.38;;;;;;;-1.20;70.14;98481.69;5057239;28;20044;-44
2023/01/05 06:41:40;;;;;;;14.88;4.45;;;;;;;-1.19;69.47;98479.97;5071231;28;20097;-49
2023/01/05 06:44:25;;;;;;;8.75;4.32;;;;;;;-1.39;69.97;98446.97;5071142;28;20400;-46
2023/01/05 06:47:28;;;;;;;8.75;4.25;;;;;;;-1.13;69.81;98485.03;5096677;28;20065;-46
2023/01/05 06:49:54;;;;;;;7.93;3.60;;;;;;;-1.11;69.53;98480.78;5074918;28;20040;-48
2023/01/05 06:52:57;;;;;;;9.65;2.97;;;;;;;-1.12;69.78;98469.72;5108580;28;20032;-46
2023/01/05 06:56:01;;;;;;;6.18;2.80;;;;;;;-1.11;69.81;98478.22;5094399;28;20036;-47
2023/01/05 06:59:04;;;;;;;6.00;2.35;;;;;;;-1.13;69.68;98475.69;5072951;28;20035;-47
2023/01/05 07:01:31;;;;;;;4.30;2.25;;;;;;;-1.18;70.04;98477.44;5089231;28;20139;-47
2023/01/05 07:04:16;;;;;;;5.30;2.50;;;;;;;-1.20;69.70;98480.84;5090002;28;20134;-46
2023/01/05 07:06:42;;;;;;;5.30;2.90;;;;;;;-1.20;69.92;98483.41;5084021;28;20039;-46
2023/01/05 07:09:48;;;;;;;5.07;2.60;;;;;;;-1.20;69.85;98485.97;5090098;28;20039;-47
2023/01/05 07:12:50;;;;;;;5.70;2.90;;;;;;;-1.22;69.65;98480.84;5091016;28;20097;-47
2023/01/05 07:15:54;;;;;;;5.20;3.20;;;;;;;-1.19;69.79;98474.88;5103876;28;20035;-48
2023/01/05 07:18:38;;;;;;;6.63;2.72;;;;;;;-1.18;69.72;98482.53;5109479;28;20028;-46
2023/01/05 07:21:41;;;;;;;5.90;2.95;;;;;;;-1.14;69.76;98480.78;5123357;27;20402;-45
2023/01/05 07:24:07;;;;;;;7.53;3.92;;;;;;;-1.10;69.72;98477.38;5069320;28;20139;-46
2023/01/05 07:27:10;;;;;;;8.88;3.50;;;;;;;-1.25;69.72;98454.50;5070599;28;20047;-46
2023/01/05 07:30:13;;;;;;;6.15;3.05;;;;;;;-1.07;69.53;98480.75;5052549;28;20055;-46
2023/01/05 07:32:59;;;;;;;4.32;2.50;;;;;;;-1.06;69.56;98486.69;5103616;28;20067;-44
2023/01/05 07:36:02;;;;;;;4.65;2.47;;;;;;;-1.02;69.38;98483.25;5078025;28;20040;-46
2023/01/05 07:38:28;;;;;;;2.53;1.80;;;;;;;-1.20;69.41;98458.72;5091473;28;20042;-46
2023/01/05 07:40:58;;;;;;;5.07;2.20;;;;;;;-1.02;69.19;98486.66;5106064;28;20048;-48
2023/01/05 07:43:42;;;;;;;;;;;;;;;-1.00;69.64;98486.66;5090885;28;20040;-44
2023/01/05 07:46:27;;;;;;;5.50;2.30;;;;;;;-0.99;68.97;98484.06;5109366;28;19927;-44
2023/01/05 07:48:53;;;;;;;5.72;3.05;;;;;;;-1.15;69.01;98461.28;5101686;28;20081;-46
2023/01/05 07:51:37;;;;;;;5.60;2.78;;;;;;;-0.98;69.09;98485.78;5090820;28;20043;-45
2023/01/05 07:54:40;;;;;;;5.47;2.40;;;;;;;-0.96;69.37;98473.88;5110551;28;20445;-46
2023/01/05 07:57:06;;;;;;;8.35;2.30;;;;;;;-1.00;68.97;98476.47;5109230;28;20038;-49
2023/01/05 07:59:32;;;;;;;5.45;2.58;;;;;;;-1.05;69.22;98479.03;5110414;28;20051;-45
2023/01/05 08:02:16;;;;;;;7.85;2.63;;;;;;;-1.28;69.17;98442.66;5083732;28;20473;-46
2023/01/05 08:05:01;;;;;;;5.15;2.28;;;;;;;-1.11;69.44;98475.69;5088269;28;20048;-45
2023/01/05 08:08:04;;;;;;;5.82;2.78;;;;;;;-1.15;69.01;98469.75;5099818;27;20626;-45
2023/01/05 08:10:49;;;;;;;7.10;3.70;;;;;;;-1.15;69.35;98477.38;5089658;28;20063;-46
2023/01/05 08:16:39;;;;;;;5.65;3.08;;;;;;;-1.15;68.87;98474.03;5081412;28;20127;-46
2023/01/05 08:19:05;;;;;;;6.80;2.80;;;;;;;-1.13;68.53;98472.28;5088129;28;20397;-45
2023/01/05 08:22:08;;;;;;;8.65;3.72;;;;;;;-1.05;68.38;98470.53;5094028;28;20044;-44
2023/01/05 08:25:11;;;;;;;5.70;3.67;;;;;;;-1.00;68.21;98473.91;5109772;28;20043;-47
2023/01/05 08:27:57;;;;;;;5.13;2.72;;;;;;;-0.98;67.92;98480.66;5109774;28;20039;-45
2023/01/05 08:30:42;;;;;;;9.13;3.88;;;;;;;-1.13;67.81;98442.53;5103159;28;20092;-51
2023/01/05 08:33:27;;;;;;;7.10;3.30;;;;;;;-1.03;67.67;98477.31;5070919;28;20551;-48
2023/01/05 08:36:11;;;;;;;5.40;2.85;;;;;;;-1.08;67.17;98473.09;5108519;28;20036;-49
2023/01/05 08:39:34;;;;;;;7.00;3.03;;;;;;;-1.07;67.05;98469.69;5109562;28;20194;-50
2023/01/05 08:42:00;;;;;;;5.28;2.70;;;;;;;-1.12;67.14;98474.84;5100775;28;20047;-47
2023/01/05 08:44:45;;;;;;;6.07;3.38;;;;;;;-1.15;67.22;98467.19;5088925;28;20040;-45
2023/01/05 08:47:29;;;;;;;4.93;2.80;;;;;;;-1.19;66.77;98457.03;5068199;28;20401;-46
2023/01/05 08:50:13;;;;;;;4.93;3.35;;;;;;;-1.08;66.76;98462.91;5067510;28;20427;-50
2023/01/05 08:53:35;;;;;;;4.75;3.15;;;;;;;-1.08;66.33;98457.81;5097062;28;20062;-44
2023/01/05 08:56:38;;;;;;;7.07;2.78;;;;;;;-1.11;66.31;98461.22;5109457;28;20045;-48
2023/01/05 08:59:22;;;;;;;8.65;3.33;;;;;;;-1.10;66.44;98456.97;5101145;28;20061;-47
2023/01/05 09:02:06;;;;;;;5.97;2.78;;;;;;;-1.10;66.27;98460.34;5092975;28;20055;-48
2023/01/05 09:04:51;;;;;;;3.60;2.00;;;;;;;-1.11;66.04;98456.13;5107905;28;20498;-47
2023/01/05 09:07:36;;;;;;;6.43;2.03;;;;;;;-1.05;65.64;98447.59;5086309;28;20052;-43
2023/01/05 09:10:21;;;;;;;5.13;2.85;;;;;;;-1.02;65.39;98439.91;5068829;28;20098;-48
2023/01/05 09:12:47;;;;;;;5.20;2.40;;;;;;;-1.15;65.40;98407.72;5098869;28;20040;-43
2023/01/05 09:15:31;;;;;;;4.88;2.55;;;;;;;-1.07;65.33;98416.16;5108893;28;20048;-48
2023/01/05 09:17:57;;;;;;;5.43;2.78;;;;;;;-0.96;65.39;98437.31;5107983;28;20040;-48
2023/01/05 09:20:23;;;;;;;5.10;2.42;;;;;;;-1.01;65.57;98434.81;5108678;28;20073;-47
2023/01/05 09:23:45;;;;;;;6.93;2.35;;;;;;;-1.08;65.77;98430.59;5063618;28;20553;-46
2023/01/05 09:26:29;;;;;;;6.30;2.40;;;;;;;-1.13;65.74;98439.13;5070431;28;20138;-47
2023/01/05 09:29:14;;;;;;;7.40;2.50;;;;;;;-1.15;66.08;98440.88;5087074;28;20082;-50
2023/01/05 09:31:58;;;;;;;5.88;2.60;;;;;;;-1.29;66.30;98430.75;5092073;28;20039;-51
2023/01/05 09:34:42;;;;;;;5.78;2.65;;;;;;;-1.33;66.27;98432.50;5108472;28;20036;-47
2023/01/05 09:37:46;;;;;;;8.20;2.47;;;;;;;-1.36;66.43;98424.84;5102614;28;20127;-47
2023/01/05 09:40:52;;;;;;;4.65;2.33;;;;;;;-1.28;66.13;98429.91;5101120;28;20028;-47
2023/01/05 09:43:55;;;;;;;4.80;2.20;;;;;;;-1.22;66.20;98431.56;5069395;28;20043;-45
2023/01/05 09:47:03;;;;;;;4.90;2.45;;;;;;;-1.24;65.76;98426.47;5087158;28;20040;-47
2023/01/05 09:49:48;;;;;;;4.85;2.58;;;;;;;-1.22;65.76;98416.28;5077171;28;20442;-47
2023/01/05 09:52:33;;;;;;;5.18;2.95;;;;;;;-1.25;65.77;98413.72;5103615;28;20048;-47
2023/01/05 09:55:37;;;;;;;6.28;2.33;;;;;;;-1.25;65.78;98419.69;5052761;28;20073;-47
2023/01/05 09:58:13;;;;;;;4.88;2.50;;;;;;;-1.44;65.61;98383.31;5087493;28;20036;-46
2023/01/05 10:00:59;;;;;;;8.60;3.20;;;;;;;-1.20;65.35;98402.63;5090852;28;20038;-46
2023/01/05 10:03:54;;;;;;;7.65;2.75;;;;;;;-1.21;65.42;98398.44;5110977;28;20468;-47
2023/01/05 10:06:26;;;;;;;6.78;2.50;;;;;;;-1.18;65.10;98395.84;5104163;28;20063;-48
2023/01/05 10:08:52;;;;;;;4.97;2.88;;;;;;;-1.15;64.84;98394.97;5063319;28;20089;-48
2023/01/05 10:14:45;;;;;;;5.72;2.67;;;;;;;-1.12;64.14;98398.34;5090501;28;20040;-48
2023/01/05 10:17:51;;;;;;;5.55;3.17;;;;;;;-1.05;63.96;98399.13;5094441;28;20054;-50
2023/01/05 10:20:45;;;;;;;6.03;2.20;;;;;;;-0.99;63.55;98399.91;5112050;28;20041;-47
2023/01/05 10:23:50;;;;;;;6.00;1.98;;;;;;;-1.01;63.40;98388.88;5103272;28;20040;-47
2023/01/05 10:27:03;;;;;;;4.30;2.70;;;;;;;-1.03;62.98;98392.31;5036701;28;20058;-47
2023/01/05 10:30:09;;;;;;;3.70;2.20;;;;;;;-1.02;62.88;98382.09;5082887;28;20079;-48
2023/01/05 10:33:21;;;;;;;5.28;2.55;;;;;;;-1.06;62.69;98384.69;5091103;28;20143;-48
2023/01/05 10:36:31;;;;;;;3.88;2.10;;;;;;;-1.06;62.11;98387.25;5088996;28;20031;-47
2023/01/05 10:39:40;;;;;;;5.10;1.95;;;;;;;-1.11;61.69;98386.44;5089527;28;20048;-47
2023/01/05 10:42:45;;;;;;;4.63;2.58;;;;;;;-1.11;61.52;98383.88;5070377;28;20098;-51
2023/01/05 10:45:48;;;;;;;7.32;2.25;;;;;;;-1.13;61.22;98388.16;5073662;28;20051;-47
2023/01/05 10:48:36;;;;;;;3.53;1.85;;;;;;;-1.20;61.18;98381.44;5072340;28;20036;-45
2023/01/05 10:51:21;;;;;;;3.80;1.98;;;;;;;-1.24;60.84;98388.22;5091415;28;20109;-47
2023/01/05 10:54:05;;;;;;;5.85;2.38;;;;;;;-1.35;60.51;98385.78;5084027;28;20043;-47
2023/01/05 10:57:09;;;;;;;8.95;2.50;;;;;;;-1.39;60.45;98394.31;5080683;28;20136;-45
2023/01/05 10:59:57;;;;;;;7.45;2.55;;;;;;;-1.43;60.28;98394.34;5074065;28;20047;-44
2023/01/05 11:02:51;;;;;;;5.07;2.30;;;;;;;-1.63;60.15;98357.97;5089101;28;20044;-44
2023/01/05 11:05:32;;;;;;;4.60;2.10;;;;;;;-1.43;60.19;98397.75;5087052;28;20043;-43
2023/01/05 11:08:54;;;;;;;5.45;2.72;;;;;;;-1.36;59.90;98391.72;5088545;28;20050;-39
2023/01/05 11:11:40;;;;;;;6.95;2.00;;;;;;;-1.56;59.87;98369.78;5089361;28;20039;-42
2023/01/05 11:14:25;;;;;;;3.63;2.20;;;;;;;-1.42;59.90;98391.78;5089026;28;20513;-40
2023/01/05 11:17:10;;;;;;;6.25;2.53;;;;;;;-1.59;59.22;98372.38;5104378;28;20435;-41
2023/01/05 11:19:58;;;;;;;7.75;2.65;;;;;;;-1.80;59.55;98356.38;5054572;28;20040;-45
2023/01/05 11:22:47;;;;;;;5.30;2.45;;;;;;;-1.66;59.97;98393.63;5086834;28;20051;-45
2023/01/05 11:25:50;;;;;;;6.32;2.80;;;;;;;-1.75;60.10;98397.09;5091802;28;20519;-45
2023/01/05 11:28:17;;;;;;;8.95;2.65;;;;;;;-1.99;59.86;98374.34;5090450;28;20657;-47
2023/01/05 11:31:20;;;;;;;11.27;2.30;;;;;;;-1.90;60.58;98395.50;5078539;28;20048;-45
2023/01/05 11:34:45;;;;;;;7.03;2.60;;;;;;;-1.91;60.64;98392.94;5062447;28;20037;-43
2023/01/05 11:37:11;;;;;;;9.63;2.92;;;;;;;-1.90;60.55;98395.50;5096703;28;20080;-46
2023/01/05 11:40:33;;;;;;;5.43;2.50;;;;;;;-2.02;60.76;98403.19;5085894;28;20125;-44
2023/01/05 11:43:18;;;;;;;6.32;3.08;;;;;;;-2.13;60.74;98395.59;5102631;28;20523;-47
2023/01/05 11:46:22;;;;;;;8.73;2.90;;;;;;;-2.20;60.63;98398.22;5087441;28;20046;-47
2023/01/05 11:49:07;;;;;;;8.75;3.65;;;;;;;-2.30;60.84;98397.38;5082599;28;20040;-48
2023/01/05 11:51:52;;;;;;;6.60;2.90;;;;;;;-2.39;60.69;98396.56;5084931;28;20040;-46
2023/01/05 11:54:38;;;;;;;6.57;2.63;;;;;;;-2.51;60.70;98394.91;5102606;28;20636;-45
2023/01/05 11:57:41;;;;;;;4.88;2.28;;;;;;;-2.66;60.77;98392.41;5106796;28;20133;-45
2023/01/05 12:01:02;;;;;;;5.57;1.67;;;;;;;-2.76;60.98;98398.38;5098459;28;20036;-46
2023/01/05 12:03:38;;;;;;;5.22;2.33;;;;;;;-2.77;60.87;98386.50;5085535;28;20040;-44
2023/01/05 12:06:54;;;;;;;4.22;2.70;;;;;;;-2.79;60.87;98386.53;5083823;28;20040;-44
2023/01/05 12:09:58;;;;;;;8.23;2.58;;;;;;;-2.89;60.64;98389.94;5088509;28;20047;-44
2023/01/05 12:12:59;;;;;;;7.22;3.08;;;;;;;-3.07;60.75;98390.78;5081869;28;20533;-47
2023/01/05 12:16:05;;;;;;;5.07;2.25;;;;;;;-3.27;61.00;98386.56;5069415;28;20568;-45
2023/01/05 12:18:43;;;;;;;5.70;2.53;;;;;;;-3.64;61.00;98368.78;5096781;28;20590;-46
2023/01/05 12:21:26;;;;;;;5.00;2.30;;;;;;;-3.83;60.85;98351.00;5080734;28;20105;-45
2023/01/05 12:24:38;;;;;;;3.92;1.92;;;;;;;-3.98;61.24;98347.56;5089612;28;20058;-45
2023/01/05 12:27:31;;;;;;;3.90;2.10;;;;;;;-3.92;61.13;98389.88;5098399;27;20134;-43
2023/01/05 12:30:27;;;;;;;5.07;2.88;;;;;;;-4.10;61.32;98388.19;5079590;28;20044;-44
2023/01/05 12:33:30;;;;;;;4.10;2.30;;;;;;;-4.27;61.41;98392.34;5062038;28;20526;-44
2023/01/05 12:36:26;;;;;;;6.88;2.75;;;;;;;-4.43;60.88;98393.13;5081744;28;20039;-43
2023/01/05 12:39:39;;;;;;;9.55;3.13;;;;;;;-4.87;61.96;98349.84;5086938;28;20047;-43
2023/01/05 12:42:27;;;;;;;6.50;2.47;;;;;;;-4.75;62.15;98390.44;5081651;28;20043;-43
2023/01/05 12:45:31;;;;;;;7.50;2.80;;;;;;;-4.87;62.53;98401.38;5083488;28;20092;-43
2023/01/05 12:48:53;;;;;;;6.07;3.22;;;;;;;-4.95;62.99;98405.53;5082630;28;20072;-43
2023/01/05 12:52:06;;;;;;;4.63;2.53;;;;;;;-5.07;63.57;98402.03;5104870;27;20157;-44
2023/01/05 12:55:09;;;;;;;8.82;4.80;;;;;;;-5.16;63.67;98406.22;5082107;28;20552;-45
2023/01/05 12:58:17;;;;;;;7.88;3.67;;;;;;;-5.22;63.64;98415.47;5073167;28;20508;-44
2023/01/05 13:01:02;;;;;;;3.85;2.28;;;;;;;-5.29;63.80;98416.25;5112945;27;20063;-45
2023/01/05 13:04:24;;;;;;;5.88;2.17;;;;;;;-5.57;63.84;98383.13;5084182;28;20464;-43
2023/01/05 13:07:31;;;;;;;8.85;2.65;;;;;;;-5.48;64.53;98420.31;5082078;28;20477;-43
2023/01/05 13:10:18;;;;;;;6.68;2.92;;;;;;;-5.53;64.73;98419.44;5082155;28;20044;-44
2023/01/05 13:12:44;;;;;;;10.77;3.20;;;;;;;-5.61;65.33;98419.38;5081738;28;20301;-45
2023/01/05 13:15:33;;;;;;;5.90;2.85;;;;;;;-5.63;65.14;98426.09;5075286;28;20083;-44
2023/01/05 13:18:00;;;;;;;7.43;3.23;;;;;;;-5.68;65.65;98431.94;5069816;28;20577;-44
2023/01/05 13:20:58;;;;;;;6.35;2.78;;;;;;;-5.75;65.86;98420.91;5067962;28;20318;-42
2023/01/05 13:23:44;;;;;;;6.68;2.90;;;;;;;-5.78;65.98;98425.09;5068924;28;20443;-46
2023/01/05 13:26:47;;;;;;;7.68;3.05;;;;;;;-5.86;66.10;98422.47;5078769;28;20428;-43
2023/01/05 13:29:58;;;;;;;6.28;2.90;;;;;;;-5.88;66.08;98426.72;5080112;28;20040;-43
2023/01/05 13:32:42;;;;;;;9.48;2.35;;;;;;;-5.94;66.32;98424.13;5083745;28;20051;-45
2023/01/05 13:35:35;;;;;;;4.43;2.47;;;;;;;-5.96;66.44;98429.97;5088260;28;20542;-44
2023/01/05 13:38:19;;;;;;;7.75;3.13;;;;;;;-6.00;66.87;98431.66;5072742;28;20052;-45
2023/01/05 13:41:25;;;;;;;6.97;3.08;;;;;;;-6.06;66.96;98434.09;5074184;28;20508;-45
2023/01/05 13:44:16;;;;;;;6.47;2.78;;;;;;;-6.07;67.00;98433.25;5083599;28;20048;-45
2023/01/05 13:47:08;;;;;;;8.05;2.35;;;;;;;-6.04;67.16;98427.41;5084851;28;20044;-44
2023/01/05 13:50:24;;;;;;;6.20;2.40;;;;;;;-6.05;66.65;98436.66;5097615;28;20141;-45
2023/01/05 13:53:08;;;;;;;4.78;2.33;;;;;;;-5.94;66.98;98444.38;5072130;28;20032;-46